Time;durP1;ratioP1;P1;durP2;ratioP2;P2;SDS_P1;SDS_P2;PMS_P1;PMS_P2;Temp;Humidity;BMP_temperature;BMP_pressure;BME280_temperature;BME280_humidity;BME280_pressure;Samples;Min_cycle;Max_cycle;Signal;HPM_P1;HPM_P2
2023/07/12 00:01:15;;;;;;;;;;;22.00;60.10;;;18.28;100.00;95447.69;4991669;28;19917;-46
2023/07/12 00:03:41;;;;;;;;;;;22.00;60.10;;;18.26;100.00;95468.78;4992791;28;19917;-44
2023/07/12 00:06:32;;;;;;;;;;;22.00;60.10;;;18.26;100.00;95458.00;4992723;28;19981;-44
2023/07/12 00:08:57;;;;;;;;;;;22.00;60.10;;;18.19;100.00;95446.91;4991621;28;20028;-44
2023/07/12 00:11:23;;;;;;;;;;;21.90;60.20;;;18.15;100.00;95445.94;4992469;28;20405;-44
2023/07/12 00:13:53;;;;;;;;;;;21.90;60.20;;;18.12;100.00;95431.19;4991555;28;19914;-44
2023/07/12 00:16:37;;;;;;;;;;;21.90;60.30;;;18.07;100.00;95412.47;4992351;28;19913;-44
2023/07/12 00:19:05;;;;;;;;;;;21.80;60.20;;;18.00;100.00;95396.78;4991363;28;19921;-44
2023/07/12 00:21:33;;;;;;;;;;;21.80;60.30;;;18.01;100.00;95381.41;4992362;28;19913;-44
2023/07/12 00:24:01;;;;;;;;;;;21.80;60.30;;;17.95;100.00;95355.72;4992293;28;19909;-43
2023/07/12 00:26:36;;;;;;;;;;;21.80;60.50;;;17.98;100.00;95341.59;4990548;28;19944;-44
2023/07/12 00:29:05;;;;;;;;;;;21.70;60.50;;;18.01;100.00;95335.59;4992346;28;19909;-45
2023/07/12 00:31:34;;;;;;;;;;;21.70;60.60;;;17.99;100.00;95337.81;4991877;28;19955;-46
2023/07/12 00:34:00;;;;;;;;;;;21.70;60.70;;;17.97;100.00;95361.59;4992058;28;19956;-44
2023/07/12 00:36:30;;;;;;;;;;;21.70;60.70;;;17.94;100.00;95373.00;4992530;28;19913;-45
2023/07/12 00:38:58;;;;;;;;;;;21.70;60.80;;;17.96;100.00;95371.59;4991025;28;19966;-46
2023/07/12 00:41:51;;;;;;;;;;;21.70;61.00;;;17.99;100.00;95362.06;4992431;28;19913;-43
2023/07/12 00:44:30;;;;;;;;;;;21.70;61.20;;;17.96;100.00;95352.72;4991252;28;20326;-47
2023/07/12 00:46:58;;;;;;;;;;;21.70;61.60;;;17.92;100.00;95350.97;4992395;28;19909;-43
2023/07/12 00:49:25;;;;;;;;;;;21.70;61.20;;;17.87;100.00;95356.53;4989351;28;20388;-45
2023/07/12 00:52:12;;;;;;;;;;;21.70;61.10;;;17.88;100.00;95352.72;4990262;28;19913;-45
2023/07/12 00:55:00;;;;;;;;;;;21.70;61.20;;;17.83;100.00;95334.81;4992430;28;19975;-45
2023/07/12 00:57:28;;;;;;;;;;;21.60;61.20;;;17.85;100.00;95318.31;4991549;28;19910;-43
2023/07/12 01:00:07;;;;;;;;;;;21.60;61.20;;;17.82;100.00;95302.78;4991452;28;19914;-43
2023/07/12 01:02:33;;;;;;;;;;;21.60;61.30;;;17.79;100.00;95290.72;4980183;28;19914;-46
2023/07/12 01:05:01;;;;;;;;;;;21.60;61.40;;;17.75;100.00;95274.38;4991872;28;19913;-43
2023/07/12 01:07:30;;;;;;;;;;;21.50;61.30;;;17.74;100.00;95272.03;4991444;28;19945;-44
2023/07/12 01:09:56;;;;;;;;;;;21.50;61.30;;;17.72;100.00;95260.75;4979206;28;20295;-43
2023/07/12 01:12:22;;;;;;;;;;;21.50;61.40;;;17.69;100.00;95254.09;4996034;28;19910;-43
2023/07/12 01:14:48;;;;;;;;;;;21.40;61.40;;;17.67;100.00;95259.00;4994913;28;19920;-45
2023/07/12 01:17:14;;;;;;;;;;;21.40;61.50;;;17.65;100.00;95265.84;4978657;28;20315;-48
2023/07/12 01:19:40;;;;;;;;;;;21.40;61.50;;;17.63;100.00;95257.28;4990436;28;20362;-46
2023/07/12 01:22:07;;;;;;;;;;;21.40;61.60;;;17.59;100.00;95262.50;4989307;28;19917;-50
2023/07/12 01:24:33;;;;;;;;;;;21.40;61.60;;;17.55;100.00;95264.25;4981749;28;20375;-43
2023/07/12 01:27:14;;;;;;;;;;;21.40;61.70;;;17.56;100.00;95272.00;4977408;28;19909;-44
2023/07/12 01:29:40;;;;;;;;;;;21.30;61.80;;;17.54;100.00;95281.50;4979802;28;19916;-44
2023/07/12 01:32:06;;;;;;;;;;;21.30;61.80;;;17.52;100.00;95281.06;4994886;28;19909;-44
2023/07/12 01:34:32;;;;;;;;;;;21.30;61.80;;;17.43;100.00;95293.72;4995258;28;19914;-48
2023/07/12 01:36:58;;;;;;;;;;;21.30;61.90;;;17.48;100.00;95304.31;4994701;28;19920;-51
2023/07/12 01:39:24;;;;;;;;;;;21.30;62.00;;;17.48;100.00;95317.78;4995454;28;20295;-44
2023/07/12 01:41:50;;;;;;;;;;;21.30;62.00;;;17.46;100.00;95326.19;4995401;28;19910;-44
2023/07/12 01:44:16;;;;;;;;;;;21.30;62.90;;;17.43;100.00;95334.88;4994389;28;19944;-48
2023/07/12 01:46:42;;;;;;;;;;;21.30;62.10;;;17.41;100.00;95336.28;4995254;28;19967;-44
2023/07/12 01:49:07;;;;;;;;;;;21.30;62.20;;;17.40;100.00;95332.81;4993521;28;19913;-46
2023/07/12 01:51:33;;;;;;;;;;;21.30;62.30;;;17.44;100.00;95322.22;4990799;28;20384;-44
2023/07/12 01:53:59;;;;;;;;;;;21.30;62.30;;;17.43;100.00;95316.03;4995399;28;19960;-47
2023/07/12 01:56:25;;;;;;;;;;;21.30;62.40;;;17.47;100.00;95322.38;4994131;28;19910;-44
2023/07/12 01:58:51;;;;;;;;;;;21.30;62.50;;;17.50;100.00;95313.66;4995287;28;19948;-45
2023/07/12 02:01:16;;;;;;;;;;;21.40;62.60;;;17.53;100.00;95304.16;4993704;28;20308;-44
2023/07/12 02:03:42;;;;;;;;;;;21.40;62.50;;;17.55;100.00;95302.75;4994773;28;19913;-44
2023/07/12 02:06:08;;;;;;;;;;;21.40;62.60;;;17.58;100.00;95293.25;4994684;28;19909;-48
2023/07/12 02:08:33;;;;;;;;;;;21.40;62.50;;;17.60;100.00;95293.72;4990432;28;19910;-47
2023/07/12 02:10:59;;;;;;;;;;;21.40;62.50;;;17.59;100.00;95300.22;4994890;28;20004;-44
2023/07/12 02:13:25;;;;;;;;;;;21.40;62.50;;;17.54;100.00;95286.91;4993826;28;19910;-45
2023/07/12 02:15:51;;;;;;;;;;;21.40;63.30;;;17.49;100.00;95270.91;4994737;28;20153;-43
2023/07/12 02:18:18;;;;;;;;;;;21.40;63.30;;;17.51;100.00;95258.69;4994493;28;19910;-44
2023/07/12 02:20:44;;;;;;;;;;;21.40;62.60;;;17.50;100.00;95264.41;4992910;28;19920;-43
2023/07/12 02:23:10;;;;;;;;;;;21.40;62.60;;;17.50;100.00;95265.19;4994779;28;20072;-46
2023/07/12 02:25:36;;;;;;;;;;;21.30;62.60;;;17.46;100.00;95264.25;4992886;28;20018;-44
2023/07/12 02:28:03;;;;;;;;;;;21.30;62.60;;;17.42;100.00;95262.50;4994463;28;19914;-44
2023/07/12 02:30:30;;;;;;;;;;;21.30;62.60;;;17.39;100.00;95249.66;4994345;28;19952;-44
2023/07/12 02:32:57;;;;;;;;;;;21.30;62.70;;;17.41;100.00;95239.38;4997684;28;20426;-44
2023/07/12 02:35:27;;;;;;;;;;;21.30;63.50;;;17.43;100.00;95235.25;4992792;28;19949;-44
2023/07/12 02:37:57;;;;;;;;;;;21.30;62.80;;;17.37;100.00;95233.06;4984634;28;19909;-44
2023/07/12 02:40:25;;;;;;;;;;;21.20;62.70;;;17.37;100.00;95233.84;4994125;28;20285;-48
2023/07/12 02:42:52;;;;;;;;;;;21.20;62.80;;;17.34;100.00;95226.38;4994264;28;19909;-45
2023/07/12 02:45:18;;;;;;;;;;;21.20;62.90;;;17.33;100.00;95222.13;4992946;28;19917;-48
2023/07/12 02:47:44;;;;;;;;;;;21.20;62.90;;;17.27;100.00;95226.06;4994238;28;20288;-45
2023/07/12 02:50:10;;;;;;;;;;;21.10;62.80;;;17.26;100.00;95236.03;4993182;28;19909;-44
2023/07/12 02:52:36;;;;;;;;;;;21.10;62.90;;;17.25;100.00;95241.75;4994147;28;19999;-44
2023/07/12 02:55:03;;;;;;;;;;;21.10;63.00;;;17.25;100.00;95242.53;4993124;28;20000;-46
2023/07/12 02:57:28;;;;;;;;;;;21.10;63.00;;;17.25;100.00;95236.34;4986294;28;20008;-47
2023/07/12 02:59:54;;;;;;;;;;;21.10;63.00;;;17.20;100.00;95228.41;4993298;28;20009;-43
2023/07/12 03:02:20;;;;;;;;;;;21.10;63.00;;;17.22;100.00;95223.53;4993034;28;19910;-45
2023/07/12 03:04:46;;;;;;;;;;;21.10;63.00;;;17.22;100.00;95223.53;4993485;28;19909;-44
2023/07/12 03:07:12;;;;;;;;;;;21.00;63.00;;;17.18;100.00;95231.44;4992937;28;20012;-47
2023/07/12 03:09:38;;;;;;;;;;;21.00;63.10;;;17.17;100.00;95239.81;4993632;28;20334;-45
2023/07/12 03:12:05;;;;;;;;;;;21.00;63.10;;;17.17;100.00;95239.81;4993787;28;19909;-46
2023/07/12 03:14:31;;;;;;;;;;;21.00;63.10;;;17.15;100.00;95248.22;4992487;28;19916;-44
2023/07/12 03:16:56;;;;;;;;;;;21.00;63.20;;;17.14;100.00;95249.31;4993942;28;20315;-45
2023/07/12 03:19:23;;;;;;;;;;;21.00;63.30;;;17.17;100.00;95255.97;4992448;28;19917;-43
2023/07/12 03:21:48;;;;;;;;;;;21.00;63.30;;;17.21;100.00;95265.81;4993570;28;20019;-43
2023/07/12 03:24:14;;;;;;;;;;;21.00;63.40;;;17.23;100.00;95285.09;4993481;28;20008;-44
2023/07/12 03:26:40;;;;;;;;;;;21.10;63.40;;;17.25;100.00;95287.50;4992644;28;20418;-43
2023/07/12 03:29:06;;;;;;;;;;;21.10;63.40;;;17.27;100.00;95291.47;4993175;28;20375;-47
2023/07/12 03:31:32;;;;;;;;;;;21.10;63.40;;;17.31;100.00;95297.78;4988725;28;19909;-46
2023/07/12 03:33:59;;;;;;;;;;;21.20;63.50;;;17.33;100.00;95278.66;4991341;28;20007;-44
2023/07/12 03:36:29;;;;;;;;;;;21.20;63.50;;;17.33;100.00;95254.44;4993467;28;19910;-45
2023/07/12 03:38:57;;;;;;;;;;;21.20;63.40;;;17.33;100.00;95257.13;4992003;28;19963;-43
2023/07/12 03:41:23;;;;;;;;;;;21.20;63.30;;;17.29;100.00;95259.63;4993088;28;19917;-43
2023/07/12 03:43:50;;;;;;;;;;;21.20;63.30;;;17.37;100.00;95282.28;4991934;28;20307;-46
2023/07/12 03:46:17;;;;;;;;;;;21.30;63.50;;;17.42;100.00;95284.03;4993268;28;19957;-44
2023/07/12 03:48:43;;;;;;;;;;;21.30;63.50;;;17.44;100.00;95274.53;4993060;28;20012;-45
2023/07/12 03:51:12;;;;;;;;;;;21.30;63.60;;;17.46;100.00;95309.22;4974748;28;19913;-43
2023/07/12 03:53:38;;;;;;;;;;;21.30;63.60;;;17.47;100.00;95330.44;4992930;28;20291;-46
2023/07/12 03:56:04;;;;;;;;;;;21.40;63.70;;;17.50;100.00;95332.50;4991964;28;19910;-47
2023/07/12 03:58:35;;;;;;;;;;;21.40;63.60;;;17.57;100.00;95340.13;4992771;28;19916;-45
2023/07/12 04:01:10;;;;;;;;;;;21.40;63.60;;;17.62;100.00;95341.88;4991597;28;26673;-46
2023/07/12 04:03:38;;;;;;;;;;;21.50;63.80;;;17.68;100.00;95356.78;4993126;28;19913;-46
2023/07/12 04:06:06;;;;;;;;;;;21.50;64.70;;;17.75;100.00;95362.50;4992747;28;19909;-45
2023/07/12 04:08:33;;;;;;;;;;;21.60;64.10;;;17.82;100.00;95362.84;4992041;28;19909;-45
2023/07/12 04:11:00;;;;;;;;;;;21.60;64.10;;;17.90;100.00;95366.66;4992889;28;19917;-50
2023/07/12 04:13:26;;;;;;;;;;;21.60;64.10;;;17.93;100.00;95377.59;4992143;28;19917;-45
2023/07/12 04:15:57;;;;;;;;;;;21.70;64.20;;;17.96;100.00;95401.22;4993128;28;19910;-46
2023/07/12 04:18:25;;;;;;;;;;;21.70;64.30;;;17.99;100.00;95457.19;4993227;28;19909;-47
2023/07/12 04:20:53;;;;;;;;;;;21.80;64.80;;;18.04;100.00;95462.41;4991791;28;20277;-52
2023/07/12 04:23:19;;;;;;;;;;;21.80;65.30;;;18.13;100.00;95457.03;4993097;28;19913;-50
2023/07/12 04:25:44;;;;;;;;;;;21.80;65.30;;;18.24;100.00;95469.09;4991609;28;20434;-51
2023/07/12 04:28:11;;;;;;;;;;;21.80;65.50;;;18.30;100.00;95487.81;4992702;28;19948;-52
2023/07/12 04:30:37;;;;;;;;;;;21.80;65.40;;;18.30;100.00;95509.38;4992470;28;19964;-47
2023/07/12 04:33:04;;;;;;;;;;;21.90;65.40;;;18.35;100.00;95493.84;4991591;28;19917;-45
2023/07/12 04:35:30;;;;;;;;;;;21.90;65.40;;;18.43;100.00;95494.97;4992403;28;19909;-49
2023/07/12 04:37:55;;;;;;;;;;;21.90;65.30;;;18.44;100.00;95486.56;4990483;28;19936;-46
2023/07/12 04:40:21;;;;;;;;;;;21.90;65.30;;;18.46;100.00;95475.47;4992505;28;19917;-45
2023/07/12 04:42:47;;;;;;;;;;;22.00;65.20;;;18.43;100.00;95468.00;4993219;28;19972;-44
2023/07/12 04:45:13;;;;;;;;;;;22.00;65.10;;;18.42;100.00;95452.91;4995446;28;19928;-45
2023/07/12 04:47:40;;;;;;;;;;;22.00;65.10;;;18.40;100.00;95455.94;4995158;28;20395;-47
2023/07/12 04:50:09;;;;;;;;;;;22.00;65.00;;;18.44;100.00;95434.53;4994868;28;20335;-46
2023/07/12 04:52:35;;;;;;;;;;;22.00;65.30;;;18.45;100.00;95422.63;4937614;28;26462;-50
2023/07/12 04:55:04;;;;;;;;;;;22.10;65.70;;;18.50;100.00;95414.38;4994711;28;19916;-46
2023/07/12 04:57:30;;;;;;;;;;;22.10;66.00;;;18.58;100.00;95451.31;4995443;28;19916;-46
2023/07/12 04:59:57;;;;;;;;;;;22.10;66.20;;;18.63;100.00;95456.56;4995731;28;19939;-45
2023/07/12 05:02:22;;;;;;;;;;;22.10;66.20;;;18.66;100.00;95438.97;4995249;28;19920;-46
2023/07/12 05:04:48;;;;;;;;;;;22.10;66.10;;;18.66;100.00;95441.66;4995793;28;19914;-44
2023/07/12 05:07:14;;;;;;;;;;;22.10;65.90;;;18.64;100.00;95414.19;4995096;28;20012;-50
2023/07/12 05:09:40;;;;;;;;;;;22.10;65.90;;;18.61;100.00;95402.13;5010999;28;20380;-45
2023/07/12 05:12:06;;;;;;;;;;;22.10;65.80;;;18.60;100.00;95419.44;4996201;28;19917;-45
2023/07/12 05:14:32;;;;;;;;;;;22.10;65.70;;;18.62;100.00;95430.72;4994883;28;20397;-46
2023/07/12 05:16:57;;;;;;;;;;;22.10;65.70;;;18.61;100.00;95414.84;4993470;28;19910;-47
2023/07/12 05:19:23;;;;;;;;;;;22.10;65.60;;;18.61;100.00;95410.22;4992434;28;19921;-45
2023/07/12 05:21:49;;;;;;;;;;;22.10;65.60;;;18.60;100.00;95402.47;4995865;28;19913;-44
2023/07/12 05:24:15;;;;;;;;;;;22.10;65.50;;;18.59;100.00;95414.38;4995724;28;20016;-45
2023/07/12 05:26:41;;;;;;;;;;;22.10;65.50;;;18.56;100.00;95429.28;4994522;28;19979;-49
2023/07/12 05:29:12;;;;;;;;;;;22.20;65.50;;;18.56;100.00;95445.47;4995527;28;20376;-43
2023/07/12 05:31:38;;;;;;;;;;;22.10;65.50;;;18.59;100.00;95450.22;4977506;28;20280;-45
2023/07/12 05:34:03;;;;;;;;;;;22.20;65.50;;;18.62;100.00;95430.72;4995449;28;19910;-45
2023/07/12 05:36:29;;;;;;;;;;;22.30;65.50;;;18.63;100.00;95424.19;4994943;28;19996;-46
2023/07/12 05:38:56;;;;;;;;;;;22.30;65.30;;;18.64;100.00;95417.69;4994222;28;19914;-44
2023/07/12 05:41:22;;;;;;;;;;;22.40;65.10;;;18.64;100.00;95406.09;4995868;28;19955;-46
2023/07/12 05:43:47;;;;;;;;;;;22.50;64.90;;;18.67;100.00;95413.56;4994471;28;20307;-45
2023/07/12 05:46:13;;;;;;;;;;;22.50;64.70;;;18.71;100.00;95384.84;5011124;28;19909;-45
2023/07/12 05:48:39;;;;;;;;;;;22.60;64.60;;;18.77;100.00;95375.50;4994016;28;19917;-45
2023/07/12 05:51:07;;;;;;;;;;;22.70;64.50;;;18.84;100.00;95348.81;4992477;28;20276;-46
2023/07/12 05:53:34;;;;;;;;;;;22.80;64.50;;;18.86;100.00;95332.28;4993202;28;20007;-45
2023/07/12 05:56:01;;;;;;;;;;;22.90;64.30;;;18.96;100.00;95348.16;4990230;28;19913;-49
2023/07/12 05:58:27;;;;;;;;;;;23.00;64.30;;;19.02;100.00;95354.13;4992863;28;19909;-46
2023/07/12 06:01:00;;;;;;;;;;;23.20;64.10;;;19.15;100.00;95363.94;4994895;28;20384;-46
2023/07/12 06:03:32;;;;;;;;;;;23.40;63.90;;;19.26;100.00;95378.66;5008963;28;19956;-48
2023/07/12 06:05:59;;;;;;;;;;;23.60;63.80;;;19.41;100.00;95388.13;4994972;28;20319;-50
2023/07/12 06:08:27;;;;;;;;;;;23.70;63.60;;;19.54;100.00;95395.19;4993532;28;20287;-47
2023/07/12 06:10:52;;;;;;;;;;;23.90;63.50;;;19.67;100.00;95392.63;4994833;28;19909;-47
2023/07/12 06:13:19;;;;;;;;;;;24.00;63.40;;;19.81;100.00;95402.06;4993836;28;19936;-47
2023/07/12 06:15:44;;;;;;;;;;;24.20;63.30;;;19.96;100.00;95410.72;4994505;28;19992;-46
2023/07/12 06:18:10;;;;;;;;;;;24.30;63.30;;;20.07;100.00;95422.72;4994789;28;20024;-49
2023/07/12 06:20:36;;;;;;;;;;;24.40;63.30;;;20.11;100.00;95412.84;4993215;28;19920;-47
2023/07/12 06:23:03;;;;;;;;;;;24.50;63.30;;;20.20;100.00;95405.44;4994854;28;20292;-48
2023/07/12 06:25:30;;;;;;;;;;;24.50;63.20;;;20.31;100.00;95408.56;4993330;28;19913;-45
2023/07/12 06:27:56;;;;;;;;;;;24.70;63.00;;;20.43;100.00;95411.34;4994585;28;19910;-46
2023/07/12 06:30:22;;;;;;;;;;;24.80;62.80;;;20.53;100.00;95408.25;4994268;28;19967;-46
2023/07/12 06:32:48;;;;;;;;;;;24.90;62.70;;;20.66;100.00;95405.59;4993229;28;19949;-51
2023/07/12 06:35:14;;;;;;;;;;;25.00;62.50;;;20.69;100.00;95399.50;4994726;28;19910;-51
2023/07/12 06:37:40;;;;;;;;;;;25.10;62.40;;;20.69;100.00;95394.88;4993367;28;20051;-45
2023/07/12 06:40:07;;;;;;;;;;;25.10;62.30;;;20.78;100.00;95398.28;4994089;28;20007;-47
2023/07/12 06:42:33;;;;;;;;;;;25.20;62.10;;;20.89;100.00;95398.66;4994307;28;20016;-48
2023/07/12 06:45:00;;;;;;;;;;;25.30;62.00;;;21.03;100.00;95387.53;4992933;28;19913;-48
2023/07/12 06:47:26;;;;;;;;;;;25.50;62.00;;;21.10;100.00;95378.84;4994470;28;19980;-49
2023/07/12 06:49:53;;;;;;;;;;;25.60;61.80;;;21.22;100.00;95376.94;4992310;28;20379;-46
2023/07/12 06:52:19;;;;;;;;;;;25.70;61.70;;;21.35;100.00;95374.25;4994235;28;20407;-46
2023/07/12 06:54:45;;;;;;;;;;;25.90;61.60;;;21.53;100.00;95391.91;4993795;28;20008;-51
2023/07/12 06:57:11;;;;;;;;;;;26.10;61.50;;;21.75;100.00;95387.94;4993101;28;20047;-46
2023/07/12 06:59:37;;;;;;;;;;;26.30;61.40;;;22.01;100.00;95384.84;4993175;28;19924;-47
2023/07/12 07:02:03;;;;;;;;;;;26.70;61.30;;;22.38;100.00;95382.84;4992889;28;19917;-44
2023/07/12 07:04:29;;;;;;;;;;;27.00;61.10;;;22.72;97.56;95393.41;4993446;28;19974;-44
2023/07/12 07:06:54;;;;;;;;;;;27.40;60.90;;;22.98;95.22;95398.44;4993447;28;20007;-47
2023/07/12 07:09:20;;;;;;;;;;;27.60;60.70;;;23.16;92.78;95410.56;4992940;28;19996;-44
2023/07/12 07:11:46;;;;;;;;;;;27.80;60.60;;;23.21;91.57;95407.56;4994034;28;19910;-44
2023/07/12 07:14:11;;;;;;;;;;;27.90;60.30;;;23.41;87.99;95411.19;4992902;28;19909;-44
2023/07/12 07:16:37;;;;;;;;;;;28.10;60.00;;;23.72;84.13;95406.88;4994049;28;19909;-45
2023/07/12 07:19:03;;;;;;;;;;;28.60;59.70;;;24.02;81.19;95404.44;4993608;28;19913;-44
2023/07/12 07:21:29;;;;;;;;;;;29.10;59.40;;;24.48;83.77;95409.34;4992827;28;19913;-44
2023/07/12 07:23:54;;;;;;;;;;;29.70;59.10;;;24.64;78.13;95407.34;4993548;28;19910;-44
2023/07/12 07:26:20;;;;;;;;;;;30.00;58.70;;;24.87;77.73;95404.66;4992356;28;19916;-44
2023/07/12 07:28:47;;;;;;;;;;;30.20;58.30;;;25.17;77.22;95404.84;4976185;28;20434;-46
2023/07/12 07:31:12;;;;;;;;;;;30.50;58.10;;;25.35;75.92;95408.69;4992123;28;19910;-44
2023/07/12 07:33:40;;;;;;;;;;;30.80;57.80;;;25.55;71.02;95409.38;4993535;28;19921;-45
2023/07/12 07:36:08;;;;;;;;;;;31.20;57.50;;;25.82;73.90;95407.50;4993473;28;20009;-44
2023/07/12 07:38:36;;;;;;;;;;;31.40;57.10;;;26.14;72.20;95420.06;4992471;28;19996;-46
2023/07/12 07:41:09;;;;;;;;;;;31.70;56.80;;;26.45;68.74;95427.06;4993363;28;19909;-45
2023/07/12 07:43:39;;;;;;;;;;;32.00;56.70;;;26.74;67.36;95428.25;4992140;28;20257;-44
2023/07/12 07:46:07;;;;;;;;;;;32.30;56.40;;;26.80;68.92;95437.69;4993207;28;19910;-47
2023/07/12 07:48:33;;;;;;;;;;;32.60;55.80;;;26.99;64.07;95445.72;4993119;28;19963;-45
2023/07/12 07:50:59;;;;;;;;;;;32.90;55.60;;;27.19;63.63;95442.84;4991850;28;20332;-45
2023/07/12 07:53:25;;;;;;;;;;;33.10;55.30;;;27.21;64.33;95452.25;4992813;28;20395;-47
2023/07/12 07:55:51;;;;;;;;;;;33.10;54.90;;;27.25;62.02;95459.69;4974330;28;20308;-44
2023/07/12 07:58:17;;;;;;;;;;;33.10;54.60;;;26.95;68.13;95452.28;4992919;28;19917;-45
2023/07/12 08:00:43;;;;;;;;;;;32.90;54.30;;;26.82;69.18;95443.56;4992521;28;19922;-44
2023/07/12 08:03:11;;;;;;;;;;;32.80;54.10;;;27.12;68.51;95450.94;4991858;28;20004;-43
2023/07/12 08:05:37;;;;;;;;;;;32.90;53.80;;;27.21;65.37;95446.00;4992853;28;20364;-45
2023/07/12 08:08:04;;;;;;;;;;;33.20;53.60;;;27.33;64.98;95442.22;4991273;28;20292;-46
2023/07/12 08:10:32;;;;;;;;;;;33.70;53.20;;;27.63;59.73;95442.06;4990060;28;20423;-44
2023/07/12 08:12:58;;;;;;;;;;;34.20;52.70;;;28.04;58.08;95448.28;4990088;28;19909;-46
2023/07/12 08:15:25;;;;;;;;;;;34.70;52.10;;;28.38;58.61;95451.63;4989008;28;19926;-45
2023/07/12 08:17:51;;;;;;;;;;;35.00;52.10;;;28.64;59.96;95457.28;4989442;28;20280;-45
2023/07/12 08:20:17;;;;;;;;;;;35.20;51.20;;;28.46;59.73;95451.72;4988205;28;19913;-44
2023/07/12 08:22:44;;;;;;;;;;;35.30;50.80;;;28.23;56.58;95449.19;4989154;28;19962;-45
2023/07/12 08:25:11;;;;;;;;;;;35.20;50.40;;;28.01;57.88;95459.22;4992569;28;20269;-49
2023/07/12 08:27:37;;;;;;;;;;;35.00;50.00;;;27.93;57.31;95463.84;4992401;28;19948;-44
2023/07/12 08:30:04;;;;;;;;;;;34.80;49.80;;;27.81;59.37;95464.16;4992961;28;19956;-45
2023/07/12 08:32:33;;;;;;;;;;;34.50;49.60;;;27.63;61.21;95463.97;4991003;28;19920;-44
2023/07/12 08:35:01;;;;;;;;;;;34.20;49.50;;;27.59;59.57;95466.66;4992563;28;19963;-46
2023/07/12 08:37:28;;;;;;;;;;;34.00;50.20;;;27.37;60.86;95462.16;4990431;28;20357;-44
2023/07/12 08:39:54;;;;;;;;;;;33.80;49.40;;;27.32;61.08;95455.06;4991008;28;20022;-49
2023/07/12 08:42:38;;;;;;;;;;;33.60;49.40;;;27.22;62.54;95470.22;4971933;28;20369;-47
2023/07/12 08:45:20;;;;;;;;;;;33.50;49.50;;;27.16;62.63;95468.97;4976044;28;20299;-48
2023/07/12 08:47:50;;;;;;;;;;;33.30;49.40;;;27.10;62.17;95462.22;4992410;28;19909;-46
2023/07/12 08:50:17;;;;;;;;;;;33.10;49.40;;;26.99;60.92;95464.06;4974392;28;20358;-46
2023/07/12 08:52:44;;;;;;;;;;;33.00;49.40;;;26.85;64.99;95461.94;4992471;28;19910;-43
2023/07/12 08:55:18;;;;;;;;;;;32.90;49.30;;;26.63;61.89;95465.56;4974766;28;19910;-48
2023/07/12 08:58:03;;;;;;;;;;;32.80;49.20;;;26.47;61.73;95469.25;4991945;28;19948;-45
2023/07/12 09:00:34;;;;;;;;;;;32.70;49.10;;;26.49;63.91;95469.69;4981227;28;20330;-45
2023/07/12 09:03:00;;;;;;;;;;;32.60;49.00;;;26.49;64.19;95468.91;4981584;28;19913;-43
2023/07/12 09:05:28;;;;;;;;;;;32.50;48.90;;;26.39;65.68;95467.59;4991846;28;20291;-46
2023/07/12 09:08:08;;;;;;;;;;;32.50;48.90;;;26.51;62.80;95450.19;4991425;28;19910;-45
2023/07/12 09:10:45;;;;;;;;;;;32.50;48.90;;;26.51;64.02;95436.53;4992127;28;19956;-44
2023/07/12 09:13:14;;;;;;;;;;;32.50;49.00;;;26.68;63.82;95433.25;4992251;28;19909;-47
2023/07/12 09:15:52;;;;;;;;;;;32.50;49.00;;;26.80;63.63;95437.69;4992078;28;19921;-46
2023/07/12 09:18:36;;;;;;;;;;;32.60;49.00;;;26.89;61.30;95431.94;4992123;28;20368;-44
2023/07/12 09:21:15;;;;;;;;;;;32.60;48.80;;;26.96;63.43;95421.88;4990711;28;20338;-46
2023/07/12 09:23:44;;;;;;;;;;;32.60;48.60;;;27.00;62.76;95428.16;4992076;28;20399;-45
2023/07/12 09:26:23;;;;;;;;;;;32.50;48.70;;;26.77;63.93;95435.72;4991336;28;20322;-46
2023/07/12 09:28:55;;;;;;;;;;;32.40;48.80;;;26.55;63.85;95436.63;4992667;28;20040;-49
2023/07/12 09:31:30;;;;;;;;;;;32.10;48.70;;;26.42;62.95;95434.09;4994548;28;20344;-45
2023/07/12 09:34:05;;;;;;;;;;;31.90;48.80;;;26.30;67.18;95437.03;4995552;28;20392;-45
2023/07/12 09:36:37;;;;;;;;;;;31.70;48.90;;;26.23;65.17;95436.91;4994967;28;19916;-48
2023/07/12 09:39:05;;;;;;;;;;;31.60;49.00;;;26.23;66.97;95436.91;4993759;28;19968;-46
2023/07/12 09:41:32;;;;;;;;;;;31.70;48.90;;;26.50;66.17;95451.38;4995828;28;19910;-46
2023/07/12 09:44:01;;;;;;;;;;;31.90;48.80;;;26.56;67.14;95452.63;4994632;28;20012;-48
2023/07/12 09:46:44;;;;;;;;;;;31.80;48.70;;;26.51;64.49;95451.00;4995579;28;20289;-49
2023/07/12 09:49:25;;;;;;;;;;;31.90;48.60;;;26.51;63.94;95444.75;4995504;28;19916;-47
2023/07/12 09:52:06;;;;;;;;;;;31.90;48.50;;;26.39;62.93;95440.28;4976168;28;19913;-46
2023/07/12 09:54:52;;;;;;;;;;;32.00;48.40;;;26.18;65.05;95459.09;4995116;28;19909;-47
2023/07/12 09:57:34;;;;;;;;;;;32.00;48.30;;;26.02;66.38;95462.75;4991442;28;19924;-48
2023/07/12 10:00:31;;;;;;;;;;;31.80;48.30;;;25.90;66.06;95465.69;4994663;28;19917;-48
2023/07/12 10:03:26;;;;;;;;;;;31.50;48.40;;;25.74;67.17;95471.25;4986835;28;20008;-49
2023/07/12 10:06:02;;;;;;;;;;;31.20;48.50;;;25.53;67.07;95460.75;4994844;28;19916;-46
2023/07/12 10:08:54;;;;;;;;;;;30.80;48.70;;;25.47;68.61;95451.31;4992606;28;19909;-48
2023/07/12 10:11:28;;;;;;;;;;;30.60;48.90;;;25.33;71.86;95445.63;4994735;28;19917;-47
2023/07/12 10:14:01;;;;;;;;;;;30.30;49.00;;;25.33;71.86;95445.63;4993836;28;20432;-45
2023/07/12 10:16:39;;;;;;;;;;;30.20;49.20;;;25.20;73.33;95458.63;4994924;28;19910;-48
2023/07/12 10:19:20;;;;;;;;;;;30.20;49.40;;;25.14;75.01;95449.19;4993586;28;19920;-46
2023/07/12 10:21:53;;;;;;;;;;;30.10;49.50;;;25.13;78.60;95456.56;4994298;28;19921;-45
2023/07/12 10:24:28;;;;;;;;;;;30.10;49.60;;;25.12;80.25;95465.88;4994761;28;20342;-45
2023/07/12 10:26:56;;;;;;;;;;;30.10;49.60;;;25.09;79.12;95457.59;4992836;28;19909;-44
2023/07/12 10:29:41;;;;;;;;;;;30.20;49.70;;;24.99;81.42;95461.72;4993170;28;19909;-47
2023/07/12 10:32:22;;;;;;;;;;;30.40;49.80;;;24.76;74.92;95450.75;4992141;28;19962;-47
2023/07/12 10:35:30;;;;;;;;;;;30.50;49.70;;;24.89;75.71;95440.50;4985181;28;19975;-42
2023/07/12 10:38:10;;;;;;;;;;;30.50;49.60;;;25.14;77.26;95424.66;4991685;28;20284;-42
2023/07/12 10:41:18;;;;;;;;;;;30.60;49.60;;;25.48;73.36;95422.91;4992065;28;19956;-42
2023/07/12 10:43:50;;;;;;;;;;;31.10;49.50;;;25.88;69.22;95423.56;4992284;28;19913;-42
2023/07/12 10:46:31;;;;;;;;;;;31.70;49.10;;;26.31;70.13;95422.22;5001754;28;19909;-43
2023/07/12 10:48:58;;;;;;;;;;;32.50;48.70;;;26.69;67.68;95423.13;4982343;28;20311;-43
2023/07/12 10:51:38;;;;;;;;;;;33.20;48.20;;;27.24;65.78;95439.78;4993196;28;20327;-44
2023/07/12 10:54:25;;;;;;;;;;;33.90;47.70;;;27.75;61.47;95444.53;4993088;28;19909;-46
2023/07/12 10:56:54;;;;;;;;;;;34.60;47.10;;;28.24;61.36;95446.09;4993096;28;19917;-43
2023/07/12 10:59:32;;;;;;;;;;;35.00;46.60;;;28.26;56.89;95423.78;4993626;28;20399;-49
2023/07/12 11:02:03;;;;;;;;;;;35.20;46.30;;;28.41;58.94;95433.69;4993582;28;19917;-43
2023/07/12 11:04:29;;;;;;;;;;;35.10;45.80;;;28.54;58.08;95428.66;4989591;28;20296;-47
2023/07/12 11:07:25;;;;;;;;;;;35.00;45.60;;;28.33;55.64;95429.28;4993863;28;19909;-44
2023/07/12 11:09:51;;;;;;;;;;;34.90;45.60;;;28.22;56.85;95414.78;4993737;28;20331;-42
2023/07/12 11:12:31;;;;;;;;;;;34.90;45.20;;;28.61;57.67;95406.75;4993698;28;19913;-43
2023/07/12 11:15:27;;;;;;;;;;;35.10;45.00;;;28.67;56.37;95410.69;4987654;28;19909;-46
2023/07/12 11:18:07;;;;;;;;;;;35.20;45.50;;;28.74;56.30;95397.03;4993497;28;20284;-48
2023/07/12 11:21:24;;;;;;;;;;;35.10;44.80;;;28.91;56.95;95392.78;4992536;28;19913;-47
2023/07/12 11:23:51;;;;;;;;;;;35.20;44.80;;;28.99;55.07;95396.34;4990252;28;19909;-48